Rio Branco, Brazil
Current Conditions -  °F | °C
As of 1:00 AM on Wednesday 28 Jan 2015 (Local Time) from SBCY Reporting Station
Broken Clouds Broken Clouds  
Wind Chill: 75°   Ceiling: 10000
Heat Index: 75°   Visibility: 6mi
Dew Point: 72°   Wind: 5mph
Humidity: 89%   Direction: 340°NNW
Pressure: 29.91"   Gusts: NA
Location:  15.24°S, 58.12°W
Report Text: SBCY 280400Z 34004KT 9999 FEW020 BKN100 24/22 Q1013
Loading
Personal Weather Stations






























Interactive Weather Map New forecast layout! Learn more

10-Day Weather Forecast

Advertisements
Track Severe Weather on mobile